Time;durP1;ratioP1;P1;durP2;ratioP2;P2;SDS_P1;SDS_P2;PMS_P1;PMS_P2;Temp;Humidity;BMP_temperature;BMP_pressure;BME280_temperature;BME280_humidity;BME280_pressure;Samples;Min_cycle;Max_cycle;Signal;HPM_P1;HPM_P2
2021/01/31 00:02:11;;;;;;;10.63;7.05;;;;;;;1.16;84.77;94498.44;5068457;28;20514;-66
2021/01/31 00:04:37;;;;;;;11.10;7.35;;;;;;;1.17;84.91;94483.94;5068821;28;20051;-65
2021/01/31 00:07:04;;;;;;;10.57;7.30;;;;;;;1.18;84.90;94493.56;5068303;28;20426;-65
2021/01/31 00:09:31;;;;;;;11.68;7.75;;;;;;;1.20;84.94;94501.28;5069167;28;20578;-65
2021/01/31 00:11:57;;;;;;;10.85;7.38;;;;;;;1.18;84.82;94498.94;5068864;28;20048;-66
2021/01/31 00:14:23;;;;;;;10.95;7.68;;;;;;;1.16;84.95;94503.03;5068282;28;20052;-65
2021/01/31 00:16:49;;;;;;;12.88;8.27;;;;;;;1.14;85.21;94505.97;5068983;28;20053;-66
2021/01/31 00:19:15;;;;;;;10.95;7.65;;;;;;;1.17;85.16;94491.19;5068429;28;20048;-65
2021/01/31 00:21:41;;;;;;;12.23;8.23;;;;;;;1.13;85.09;94496.38;5068871;28;20159;-66
2021/01/31 00:24:07;;;;;;;12.23;8.30;;;;;;;1.08;84.81;94507.19;5068168;28;20045;-66
2021/01/31 00:26:34;;;;;;;12.73;8.20;;;;;;;1.02;84.88;94497.69;5068731;28;20056;-65
2021/01/31 00:29:00;;;;;;;11.68;7.70;;;;;;;0.99;85.08;94492.94;5068489;28;20055;-65
2021/01/31 00:31:26;;;;;;;13.13;8.77;;;;;;;0.95;85.17;94498.13;5068320;28;20048;-65
2021/01/31 00:33:52;;;;;;;12.32;8.05;;;;;;;1.02;85.24;94505.72;5067581;28;20510;-65
2021/01/31 00:36:18;;;;;;;13.13;9.25;;;;;;;1.02;85.41;94503.06;5068101;28;20055;-66
2021/01/31 00:38:44;;;;;;;13.07;9.00;;;;;;;1.03;85.52;94510.78;5068651;28;20048;-66
2021/01/31 00:41:10;;;;;;;12.38;8.63;;;;;;;1.04;85.36;94501.69;5068082;28;20048;-66
2021/01/31 00:43:36;;;;;;;13.50;9.15;;;;;;;1.07;85.28;94500.25;5068303;28;20106;-66
2021/01/31 00:46:02;;;;;;;13.40;9.10;;;;;;;1.05;85.07;94502.47;5068119;28;20114;-66
2021/01/31 00:48:28;;;;;;;14.98;9.82;;;;;;;1.06;85.01;94503.25;5068352;28;20052;-66
2021/01/31 00:50:54;;;;;;;13.80;9.63;;;;;;;1.04;85.11;94500.84;5067773;28;20068;-66
2021/01/31 00:53:20;;;;;;;16.15;10.43;;;;;;;1.02;85.03;94506.53;5066781;28;20552;-65
2021/01/31 00:55:46;;;;;;;15.13;10.05;;;;;;;1.02;85.04;94503.06;5067347;28;20079;-66
2021/01/31 00:58:12;;;;;;;13.73;9.27;;;;;;;1.03;85.11;94500.06;5066937;28;20098;-65
2021/01/31 01:00:40;;;;;;;14.63;9.95;;;;;;;1.09;85.16;94508.78;5066929;28;20048;-66
2021/01/31 01:03:07;;;;;;;16.08;10.05;;;;;;;1.15;85.28;94502.22;5066454;28;20491;-66
2021/01/31 01:05:33;;;;;;;16.40;10.55;;;;;;;1.21;85.13;94511.75;5066675;28;20055;-66
2021/01/31 01:08:00;;;;;;;14.75;10.02;;;;;;;1.18;84.97;94512.34;5067881;28;20048;-65
2021/01/31 01:10:30;;;;;;;15.30;10.07;;;;;;;1.09;84.77;94514.13;5065958;28;20800;-66
2021/01/31 01:12:56;;;;;;;14.60;9.45;;;;;;;1.09;84.78;94514.13;5067503;28;20052;-65
2021/01/31 01:15:24;;;;;;;14.05;9.75;;;;;;;1.06;84.71;94520.13;5066281;28;20044;-65
2021/01/31 01:17:52;;;;;;;15.40;9.65;;;;;;;1.04;84.79;94516.94;5067361;28;20109;-66
2021/01/31 01:20:18;;;;;;;12.73;8.70;;;;;;;0.96;84.56;94526.50;5066594;28;20118;-66
2021/01/31 01:22:44;;;;;;;15.05;9.93;;;;;;;0.90;84.52;94524.25;5067413;28;20052;-66
2021/01/31 01:25:12;;;;;;;17.02;10.10;;;;;;;0.93;84.29;94528.97;5067422;28;20052;-66
2021/01/31 01:27:39;;;;;;;15.65;9.85;;;;;;;0.89;84.18;94530.66;5067827;28;20055;-65
2021/01/31 01:30:08;;;;;;;13.95;9.65;;;;;;;0.91;84.24;94533.84;5067059;28;20048;-66
2021/01/31 01:32:33;;;;;;;15.48;9.93;;;;;;;0.88;84.13;94529.09;5066766;28;20059;-65
2021/01/31 01:35:00;;;;;;;13.57;9.82;;;;;;;0.88;84.03;94527.19;5067349;28;20040;-65
2021/01/31 01:37:26;;;;;;;15.15;9.93;;;;;;;0.90;84.19;94535.75;5067135;28;20495;-65
2021/01/31 01:39:52;;;;;;;15.43;9.50;;;;;;;0.89;84.02;94531.50;5067509;28;20059;-65
2021/01/31 01:42:18;;;;;;;16.23;10.45;;;;;;;0.81;84.15;94528.72;5066959;28;20075;-66
2021/01/31 01:44:44;;;;;;;13.93;9.70;;;;;;;0.76;84.20;94533.09;5066723;28;20786;-68
2021/01/31 01:47:16;;;;;;;15.13;10.13;;;;;;;0.71;84.54;94530.50;5066511;28;20056;-65
2021/01/31 01:49:45;;;;;;;16.13;10.55;;;;;;;0.70;84.73;94528.94;5067267;28;20442;-65
2021/01/31 01:52:22;;;;;;;17.50;11.35;;;;;;;0.63;84.77;94533.91;5066880;28;20045;-65
2021/01/31 01:54:51;;;;;;;16.80;10.82;;;;;;;0.60;85.09;94539.84;5066674;28;20052;-65
2021/01/31 01:57:22;;;;;;;16.35;10.75;;;;;;;0.58;84.99;94539.38;5066850;28;20529;-65
2021/01/31 01:59:50;;;;;;;16.13;10.82;;;;;;;0.56;84.94;94538.06;5067500;28;20400;-65
2021/01/31 02:02:19;;;;;;;18.17;11.07;;;;;;;0.58;85.04;94542.06;5066279;28;20052;-66
2021/01/31 02:04:45;;;;;;;18.65;11.45;;;;;;;0.58;85.22;94536.69;5067172;28;20103;-65
2021/01/31 02:07:12;;;;;;;16.92;10.80;;;;;;;0.56;85.02;94533.50;5066816;28;20418;-66
2021/01/31 02:09:38;;;;;;;18.15;11.68;;;;;;;0.50;85.15;94540.06;5067222;28;20048;-65
2021/01/31 02:12:07;;;;;;;17.55;10.95;;;;;;;0.52;85.34;94543.22;5066765;28;20052;-66
2021/01/31 02:14:36;;;;;;;16.65;11.00;;;;;;;0.51;85.24;94552.34;5067105;28;20415;-65
2021/01/31 02:17:06;;;;;;;18.98;11.75;;;;;;;0.51;85.04;94547.78;5066777;28;20415;-66
2021/01/31 02:20:10;;;;;;;16.40;10.32;;;;;;;0.53;85.06;94542.16;5067189;28;20249;-65
2021/01/31 02:23:12;;;;;;;17.27;10.50;;;;;;;0.51;84.81;94544.31;5067028;28;20149;-65
2021/01/31 02:25:51;;;;;;;17.25;10.90;;;;;;;0.52;84.86;94548.56;5066786;28;20538;-65
2021/01/31 02:28:45;;;;;;;18.88;11.38;;;;;;;0.51;84.98;94545.09;5065958;28;20106;-66
2021/01/31 02:31:26;;;;;;;;;;;;;;;0.54;84.73;94541.06;5067335;28;20284;-66
2021/01/31 02:33:59;;;;;;;16.05;10.00;;;;;;;0.50;84.33;94554.25;5066468;28;19924;-66
2021/01/31 02:36:34;;;;;;;16.20;10.02;;;;;;;0.52;84.30;94548.56;5066643;28;20086;-65
2021/01/31 02:39:11;;;;;;;15.93;10.85;;;;;;;0.51;84.29;94552.34;5066880;28;20056;-65
2021/01/31 02:41:44;;;;;;;16.98;10.07;;;;;;;0.51;84.23;94552.34;5066740;28;20052;-65
2021/01/31 02:44:13;;;;;;;18.23;10.80;;;;;;;0.50;84.09;94556.13;5066359;28;20101;-65
2021/01/31 02:46:45;;;;;;;16.25;10.50;;;;;;;0.50;83.92;94556.13;5067192;28;20045;-65
2021/01/31 02:49:16;;;;;;;17.30;10.40;;;;;;;0.53;84.12;94566.25;5066626;28;20048;-65
2021/01/31 02:51:50;;;;;;;16.50;10.13;;;;;;;0.50;84.07;94556.13;5066603;28;20056;-65
2021/01/31 02:54:18;;;;;;;;;;;;;;;0.49;84.05;94558.00;5066937;28;20048;-65
2021/01/31 02:56:49;;;;;;;14.75;9.15;;;;;;;0.41;83.43;94557.91;5067161;28;19924;-64
2021/01/31 02:59:21;;;;;;;14.43;8.82;;;;;;;0.41;83.31;94563.25;5066853;28;20731;-65
2021/01/31 03:01:53;;;;;;;14.63;9.48;;;;;;;0.41;83.33;94552.56;5067172;28;20052;-64
2021/01/31 03:04:30;;;;;;;16.05;9.73;;;;;;;0.38;83.04;94558.53;5065945;28;20051;-64
2021/01/31 03:07:05;;;;;;;16.30;9.98;;;;;;;0.36;83.28;94555.31;5069662;28;20059;-65
2021/01/31 03:09:37;;;;;;;15.80;9.32;;;;;;;0.37;83.40;94554.25;5070217;28;20423;-65
2021/01/31 03:12:10;;;;;;;15.80;9.53;;;;;;;0.34;83.55;94557.53;5070002;28;20049;-65
2021/01/31 03:14:39;;;;;;;15.35;10.27;;;;;;;0.32;83.62;94555.16;5070313;28;20294;-65
2021/01/31 03:17:11;;;;;;;16.35;10.10;;;;;;;0.40;83.63;94564.34;5069927;28;20055;-65
2021/01/31 03:19:43;;;;;;;17.17;9.90;;;;;;;0.41;83.43;94560.59;5070267;28;20048;-64
2021/01/31 03:22:13;;;;;;;18.35;10.85;;;;;;;0.37;83.17;94567.66;5069805;28;20523;-65
2021/01/31 03:24:44;;;;;;;17.20;10.15;;;;;;;0.37;83.16;94562.28;5070432;28;20113;-65
2021/01/31 03:27:15;;;;;;;19.92;11.00;;;;;;;0.39;83.33;94560.88;5072810;28;20529;-67
2021/01/31 03:29:42;;;;;;;17.35;10.48;;;;;;;0.38;83.35;94569.22;5073036;28;20049;-67
2021/01/31 03:32:10;;;;;;;17.55;10.68;;;;;;;0.44;83.32;94566.16;5070119;28;20056;-67
2021/01/31 03:34:43;;;;;;;16.55;10.13;;;;;;;0.44;83.19;94576.06;5073079;28;20041;-66
2021/01/31 03:37:12;;;;;;;17.98;11.15;;;;;;;0.41;83.13;94582.78;5072787;28;20052;-65
2021/01/31 03:39:42;;;;;;;18.08;11.15;;;;;;;0.43;83.18;94583.31;5072969;28;20102;-64
2021/01/31 03:42:08;;;;;;;18.10;11.15;;;;;;;0.46;83.38;94592.63;5072508;28;20123;-65
2021/01/31 03:44:42;;;;;;;17.05;10.80;;;;;;;0.47;83.43;94591.53;5072999;28;20492;-65
2021/01/31 03:47:14;;;;;;;18.25;11.40;;;;;;;0.48;83.38;94599.28;5072334;28;20087;-65
2021/01/31 03:49:48;;;;;;;19.55;11.52;;;;;;;0.49;83.47;94597.41;5072867;28;20101;-64
2021/01/31 03:52:14;;;;;;;24.10;12.93;;;;;;;0.50;82.76;94598.97;5072629;28;20396;-65
2021/01/31 03:54:40;;;;;;;20.50;11.85;;;;;;;0.41;82.66;94598.84;5072952;28;20139;-65
2021/01/31 03:57:13;;;;;;;20.70;11.73;;;;;;;0.41;82.58;94600.75;5072482;28;20052;-65
2021/01/31 03:59:45;;;;;;;18.30;10.57;;;;;;;0.38;82.30;94609.38;5072874;28;20052;-65
2021/01/31 04:02:13;;;;;;;16.65;10.10;;;;;;;0.34;81.76;94605.72;5071872;28;20048;-65
2021/01/31 04:04:42;;;;;;;18.77;10.68;;;;;;;0.37;82.16;94615.84;5072796;28;20048;-65
2021/01/31 04:07:09;;;;;;;18.77;11.20;;;;;;;0.38;81.97;94617.41;5072397;28;20048;-65
2021/01/31 04:09:38;;;;;;;18.17;11.88;;;;;;;0.34;81.91;94619.09;5072404;28;20051;-65
2021/01/31 04:12:06;;;;;;;18.70;10.90;;;;;;;0.33;82.20;94622.88;5072245;28;20052;-65
2021/01/31 04:14:38;;;;;;;21.42;11.27;;;;;;;0.34;82.07;94625.25;5072380;28;20055;-65
2021/01/31 04:17:05;;;;;;;19.63;10.15;;;;;;;0.30;81.71;94628.81;5071875;28;20119;-66
2021/01/31 04:19:31;;;;;;;18.88;10.50;;;;;;;0.27;81.23;94626.72;5072307;28;20040;-65
2021/01/31 04:21:57;;;;;;;19.13;11.10;;;;;;;0.29;81.53;94624.53;5072338;28;20541;-65
2021/01/31 04:24:23;;;;;;;19.70;11.20;;;;;;;0.31;81.61;94627.72;5071873;28;20093;-65
2021/01/31 04:26:50;;;;;;;20.30;11.57;;;;;;;0.32;81.50;94623.97;5072549;28;20604;-65
2021/01/31 04:29:16;;;;;;;17.55;10.25;;;;;;;0.33;81.63;94630.91;5071560;28;20117;-65
2021/01/31 04:31:42;;;;;;;20.17;11.73;;;;;;;0.35;81.72;94634.84;5071941;28;20051;-65
2021/01/31 04:34:08;;;;;;;18.67;10.52;;;;;;;0.38;81.63;94649.56;5071344;28;20044;-65
2021/01/31 04:36:34;;;;;;;18.90;10.23;;;;;;;0.41;81.13;94648.94;5072108;28;20044;-65
2021/01/31 04:39:01;;;;;;;22.08;10.60;;;;;;;0.44;81.21;94648.38;5072045;28;20052;-65
2021/01/31 04:41:32;;;;;;;17.25;10.15;;;;;;;0.46;81.22;94643.50;5071626;28;20048;-65
2021/01/31 04:43:59;;;;;;;18.27;10.52;;;;;;;0.44;80.15;94651.84;5071748;28;20384;-65
2021/01/31 04:46:37;;;;;;;19.70;10.68;;;;;;;0.46;80.42;94646.97;5071251;28;20037;-65
2021/01/31 04:49:11;;;;;;;19.77;10.68;;;;;;;0.46;80.40;94656.88;5071678;28;20044;-65
2021/01/31 04:51:56;;;;;;;18.77;10.38;;;;;;;0.43;79.92;94654.81;5071852;28;20059;-65
2021/01/31 04:54:37;;;;;;;16.45;9.40;;;;;;;0.41;79.56;94659.66;5071433;28;20052;-65
2021/01/31 04:57:13;;;;;;;18.63;10.63;;;;;;;0.36;79.83;94662.44;5071333;28;20050;-65
2021/01/31 04:59:42;;;;;;;18.35;10.00;;;;;;;0.34;80.22;94668.09;5071825;28;20106;-66
2021/01/31 05:02:13;;;;;;;16.30;9.77;;;;;;;0.34;80.16;94669.97;5070924;28;20048;-65
2021/01/31 05:04:51;;;;;;;18.20;10.02;;;;;;;0.35;80.31;94666.19;5071660;28;20055;-67
2021/01/31 05:07:20;;;;;;;15.07;8.77;;;;;;;0.33;80.02;94665.72;5070978;28;20048;-67
2021/01/31 05:09:49;;;;;;;18.20;9.55;;;;;;;0.27;80.36;94670.34;5071415;28;20055;-64
2021/01/31 05:12:21;;;;;;;18.30;8.75;;;;;;;0.31;80.28;94665.19;5071122;28;20049;-64
2021/01/31 05:15:06;;;;;;;16.50;9.15;;;;;;;0.30;79.91;94668.97;5071438;28;20040;-67
2021/01/31 05:17:33;;;;;;;19.17;9.70;;;;;;;0.27;79.60;94664.22;5071433;28;20041;-67
2021/01/31 05:20:03;;;;;;;14.73;9.30;;;;;;;0.30;80.11;94667.06;5071277;28;20048;-67
2021/01/31 05:22:33;;;;;;;17.40;9.75;;;;;;;0.30;80.30;94674.31;5071084;28;20407;-64
2021/01/31 05:25:00;;;;;;;19.05;9.95;;;;;;;0.31;80.22;94675.91;5071189;28;20044;-67
2021/01/31 05:27:30;;;;;;;16.33;9.10;;;;;;;0.33;80.41;94679.09;5070797;28;20046;-67
2021/01/31 05:29:56;;;;;;;18.05;9.63;;;;;;;0.28;79.96;94681.84;5069105;28;20040;-67
2021/01/31 05:32:22;;;;;;;20.17;10.35;;;;;;;0.32;80.01;94680.19;5070383;28;20059;-65
2021/01/31 05:34:52;;;;;;;19.02;9.07;;;;;;;0.32;80.17;94693.56;5071190;28;20048;-65
2021/01/31 05:37:21;;;;;;;18.65;9.93;;;;;;;0.28;80.31;94693.34;5070951;28;20048;-66
2021/01/31 05:39:54;;;;;;;20.58;10.02;;;;;;;0.24;79.85;94698.50;5070972;28;20087;-67
2021/01/31 05:42:23;;;;;;;15.45;8.40;;;;;;;0.23;80.14;94696.91;5070527;28;20041;-67
2021/01/31 05:44:58;;;;;;;18.48;9.90;;;;;;;0.29;80.39;94699.50;5071092;28;20044;-67
2021/01/31 05:47:26;;;;;;;17.50;9.70;;;;;;;0.23;80.27;94696.91;5070594;28;20036;-67
2021/01/31 05:49:53;;;;;;;16.25;9.40;;;;;;;0.21;80.17;94699.09;5071286;28;20049;-66
2021/01/31 05:52:35;;;;;;;18.58;9.98;;;;;;;0.21;79.92;94699.09;5070555;28;20057;-67
2021/01/31 05:55:15;;;;;;;17.45;9.93;;;;;;;0.20;79.88;94702.84;5070786;28;20075;-66
2021/01/31 05:57:42;;;;;;;17.63;10.13;;;;;;;0.22;79.98;94714.06;5070824;28;20048;-66
2021/01/31 06:00:21;;;;;;;18.38;9.68;;;;;;;0.21;79.68;94717.84;5070419;28;20052;-66
2021/01/31 06:02:58;;;;;;;19.63;10.27;;;;;;;0.21;79.40;94725.88;5070442;28;20071;-66
2021/01/31 06:05:24;;;;;;;17.48;9.57;;;;;;;0.21;79.21;94730.44;5070514;28;20437;-67
2021/01/31 06:08:00;;;;;;;19.35;10.38;;;;;;;0.19;79.50;94728.03;5070944;28;20048;-66
2021/01/31 06:10:27;;;;;;;20.83;10.13;;;;;;;0.19;79.97;94728.03;5070112;28;20040;-66
2021/01/31 06:13:04;;;;;;;20.10;10.95;;;;;;;0.21;80.18;94731.22;5070888;28;20048;-67
2021/01/31 06:15:36;;;;;;;21.33;10.48;;;;;;;0.20;79.65;94724.25;5070310;28;20037;-66
2021/01/31 06:18:09;;;;;;;19.67;9.93;;;;;;;0.18;79.55;94726.44;5070270;28;20056;-67
2021/01/31 06:20:38;;;;;;;17.77;9.70;;;;;;;0.14;79.50;94725.44;5070829;28;20278;-66
2021/01/31 06:23:06;;;;;;;17.73;10.30;;;;;;;0.12;79.03;94716.91;5070067;28;20056;-67
2021/01/31 06:25:39;;;;;;;19.83;11.00;;;;;;;0.09;78.86;94717.47;5070705;28;20098;-66
2021/01/31 06:28:17;;;;;;;22.42;10.48;;;;;;;0.08;79.34;94710.53;5069859;28;20663;-66
2021/01/31 06:30:52;;;;;;;21.67;11.77;;;;;;;0.05;79.34;94716.47;5070610;28;20054;-66
2021/01/31 06:33:19;;;;;;;20.17;11.02;;;;;;;0.03;79.38;94710.63;5070071;28;20045;-66
2021/01/31 06:35:45;;;;;;;21.55;11.60;;;;;;;0.01;79.57;94710.13;5070679;28;20415;-66
2021/01/31 06:38:26;;;;;;;22.77;11.27;;;;;;;0.04;79.58;94714.09;5070136;28;20040;-67
2021/01/31 06:41:03;;;;;;;20.55;11.90;;;;;;;0.04;79.52;94717.56;5072796;28;20094;-66
2021/01/31 06:43:48;;;;;;;19.70;10.95;;;;;;;0.01;79.40;94712.78;5073932;28;20040;-66
2021/01/31 06:46:24;;;;;;;20.40;11.10;;;;;;;-0.01;78.81;94722.97;5073736;28;20045;-67
2021/01/31 06:49:06;;;;;;;22.63;11.80;;;;;;;-0.07;78.99;94726.81;5074347;28;20048;-66
2021/01/31 06:51:44;;;;;;;22.17;10.98;;;;;;;-0.07;79.28;94732.97;5074208;28;20106;-66
2021/01/31 06:54:40;;;;;;;26.77;11.70;;;;;;;-0.10;79.26;94738.13;5073565;28;20040;-67
2021/01/31 06:57:36;;;;;;;24.80;12.32;;;;;;;-0.05;79.42;94735.38;5073789;28;20074;-66
2021/01/31 07:00:32;;;;;;;23.70;11.57;;;;;;;-0.07;79.78;94737.53;5073536;28;20048;-66
2021/01/31 07:03:14;;;;;;;24.05;12.82;;;;;;;-0.07;79.78;94740.19;5065720;28;20044;-66
2021/01/31 07:05:58;;;;;;;24.30;12.40;;;;;;;-0.04;79.57;94756.47;5073935;28;20063;-66
2021/01/31 07:08:45;;;;;;;25.80;13.20;;;;;;;0.03;79.43;94755.31;5073474;28;20040;-66
2021/01/31 07:11:30;;;;;;;23.65;13.45;;;;;;;0.05;79.33;94753.94;5073266;28;20415;-66
2021/01/31 07:14:10;;;;;;;25.98;13.73;;;;;;;0.13;79.37;94764.00;5073677;28;20592;-66
2021/01/31 07:16:45;;;;;;;23.52;12.43;;;;;;;0.10;79.17;94772.59;5073243;28;20040;-66
2021/01/31 07:19:17;;;;;;;23.13;12.20;;;;;;;0.11;78.53;94763.50;5071505;28;20040;-67
2021/01/31 07:21:52;;;;;;;23.02;11.90;;;;;;;0.11;78.64;94768.84;5073558;28;20040;-66
2021/01/31 07:24:24;;;;;;;22.40;11.43;;;;;;;0.08;78.82;94764.06;5072931;28;20087;-66
2021/01/31 07:26:54;;;;;;;22.38;11.77;;;;;;;0.08;78.43;94769.41;5073627;28;20102;-67
2021/01/31 07:29:27;;;;;;;23.75;11.88;;;;;;;0.07;78.66;94775.06;5072815;28;20074;-66
2021/01/31 07:31:54;;;;;;;24.73;12.45;;;;;;;0.09;78.72;94780.91;5073239;28;20044;-66
2021/01/31 07:34:25;;;;;;;24.65;12.02;;;;;;;0.16;78.78;94776.81;5072733;28;20495;-66
2021/01/31 07:37:07;;;;;;;22.83;12.48;;;;;;;0.19;78.78;94786.91;5073104;28;20055;-66
2021/01/31 07:39:42;;;;;;;22.77;12.20;;;;;;;0.25;78.82;94791.09;5073001;28;20419;-66
2021/01/31 07:42:10;;;;;;;20.58;11.32;;;;;;;0.30;78.58;94792.13;5072594;28;20403;-67
2021/01/31 07:44:38;;;;;;;25.33;12.38;;;;;;;0.33;78.49;94780.84;5073180;28;20095;-66
2021/01/31 07:47:05;;;;;;;23.00;12.15;;;;;;;0.34;77.71;94795.81;5072371;28;20554;-67
2021/01/31 07:50:04;;;;;;;21.90;12.00;;;;;;;0.34;77.77;94793.91;5073295;28;20051;-66
2021/01/31 07:52:46;;;;;;;24.40;12.43;;;;;;;0.41;78.07;94798.91;5092220;28;20044;-66
2021/01/31 07:55:18;;;;;;;23.08;12.23;;;;;;;0.39;77.95;94795.72;5092536;28;20048;-67
2021/01/31 07:58:01;;;;;;;17.52;9.60;;;;;;;0.36;77.25;94801.66;5093002;28;20058;-66
2021/01/31 08:00:35;;;;;;;23.23;11.68;;;;;;;0.37;77.07;94798.72;5092172;28;20097;-66
2021/01/31 08:03:18;;;;;;;24.17;12.90;;;;;;;0.42;77.29;94801.31;5081190;28;20044;-68
2021/01/31 08:05:53;;;;;;;26.27;13.75;;;;;;;0.44;77.53;94803.69;5092979;28;20121;-66
2021/01/31 08:08:41;;;;;;;22.90;12.10;;;;;;;0.46;77.50;94796.16;5092371;28;20075;-67
2021/01/31 08:11:11;;;;;;;23.30;11.63;;;;;;;0.35;76.25;94800.88;5092380;28;20047;-67
2021/01/31 08:13:40;;;;;;;24.58;12.15;;;;;;;0.34;76.61;94806.53;5092702;28;20051;-66
2021/01/31 08:16:54;;;;;;;24.35;12.98;;;;;;;0.37;77.23;94811.31;5092186;28;20044;-66
2021/01/31 08:19:30;;;;;;;21.58;13.15;;;;;;;0.39;76.90;94811.78;5092339;28;20044;-66
2021/01/31 08:21:58;;;;;;;25.63;12.77;;;;;;;0.44;77.00;94814.41;5092745;28;20048;-66
2021/01/31 08:24:58;;;;;;;24.60;13.13;;;;;;;0.45;77.52;94821.34;5092051;28;20040;-66
2021/01/31 08:27:52;;;;;;;25.25;13.32;;;;;;;0.47;77.47;94819.97;5092062;28;20487;-66
2021/01/31 08:30:31;;;;;;;26.90;13.00;;;;;;;0.51;77.65;94830.88;5073763;28;20040;-66
2021/01/31 08:33:24;;;;;;;22.98;12.30;;;;;;;0.52;77.16;94827.09;5083772;28;20040;-66
2021/01/31 08:36:00;;;;;;;25.58;12.65;;;;;;;0.56;77.34;94836.16;5092117;28;20068;-66
2021/01/31 08:38:36;;;;;;;25.77;13.13;;;;;;;0.55;76.80;94837.25;5091745;28;20119;-66
2021/01/31 08:41:47;;;;;;;26.77;14.32;;;;;;;0.57;77.00;94840.44;5091919;28;20051;-67
2021/01/31 08:44:42;;;;;;;25.60;13.07;;;;;;;0.59;77.17;94843.63;5091738;28;20109;-66
2021/01/31 08:47:11;;;;;;;23.05;13.07;;;;;;;0.61;76.84;94848.69;5091683;28;20040;-67
2021/01/31 08:49:37;;;;;;;23.75;12.65;;;;;;;0.62;76.74;94856.41;5092105;28;20044;-66
2021/01/31 08:52:06;;;;;;;23.30;13.48;;;;;;;0.67;76.88;94853.66;5091651;28;20052;-67
2021/01/31 08:54:33;;;;;;;24.23;13.15;;;;;;;0.69;77.09;94854.19;5091932;28;20073;-66
2021/01/31 08:57:01;;;;;;;25.38;13.43;;;;;;;0.72;76.94;94850.09;5091856;28;20048;-66
2021/01/31 08:59:29;;;;;;;25.17;13.38;;;;;;;0.74;76.82;94847.94;5091755;28;20098;-66
2021/01/31 09:02:11;;;;;;;22.88;12.38;;;;;;;0.77;76.86;94848.16;5091734;28;20078;-66
2021/01/31 09:04:39;;;;;;;26.08;13.30;;;;;;;0.83;76.67;94842.69;5071368;28;20074;-66
2021/01/31 09:07:06;;;;;;;23.75;13.13;;;;;;;0.84;76.51;94855.03;5071291;28;20044;-67
2021/01/31 09:09:36;;;;;;;22.23;12.13;;;;;;;0.86;76.06;94852.84;5071259;28;20044;-66
2021/01/31 09:12:06;;;;;;;24.05;12.77;;;;;;;0.90;76.34;94853.84;5070991;28;20055;-67
2021/01/31 09:14:35;;;;;;;22.05;12.10;;;;;;;0.92;76.41;94849.00;5071510;28;20048;-66
2021/01/31 09:17:02;;;;;;;23.77;12.95;;;;;;;0.93;75.69;94853.25;5071315;28;20048;-66
2021/01/31 09:19:28;;;;;;;23.35;13.07;;;;;;;0.94;75.85;94850.31;5071283;28;20040;-66
2021/01/31 09:22:00;;;;;;;25.30;12.45;;;;;;;0.97;76.31;94851.59;5070522;28;20530;-69
2021/01/31 09:24:31;;;;;;;21.90;12.48;;;;;;;0.94;75.15;94855.66;5068968;28;20048;-69
2021/01/31 09:26:57;;;;;;;25.35;13.05;;;;;;;0.96;75.81;94858.84;5071213;28;20049;-68
2021/01/31 09:29:25;;;;;;;20.63;12.05;;;;;;;1.01;75.61;94866.00;5070604;28;20048;-69
2021/01/31 09:31:56;;;;;;;24.05;13.48;;;;;;;1.06;75.91;94868.59;5070949;28;20045;-69
2021/01/31 09:34:24;;;;;;;25.35;13.43;;;;;;;1.08;75.75;94865.63;5070782;28;20052;-69
2021/01/31 09:37:04;;;;;;;23.55;12.90;;;;;;;1.11;75.36;94868.50;5070876;28;20055;-69
2021/01/31 09:39:33;;;;;;;25.25;13.10;;;;;;;1.05;75.17;94864.31;5070821;28;20044;-69
2021/01/31 09:42:03;;;;;;;23.20;12.82;;;;;;;1.11;75.30;94875.75;5070945;28;20045;-69
2021/01/31 09:44:31;;;;;;;23.70;12.82;;;;;;;1.10;74.70;94880.34;5068835;28;20048;-70
2021/01/31 09:46:57;;;;;;;24.15;13.35;;;;;;;1.12;74.99;94880.03;5067417;28;20048;-70
2021/01/31 09:49:26;;;;;;;27.65;14.52;;;;;;;1.10;75.19;94885.69;5067323;28;20044;-71
2021/01/31 09:51:52;;;;;;;24.42;13.13;;;;;;;1.12;75.49;94882.72;5067312;28;20055;-71
2021/01/31 09:54:20;;;;;;;24.35;12.73;;;;;;;1.13;75.42;94877.03;5066648;28;20041;-70
2021/01/31 09:56:50;;;;;;;23.98;12.80;;;;;;;1.15;75.19;94874.06;5067253;28;20048;-71
2021/01/31 09:59:23;;;;;;;24.83;12.98;;;;;;;1.13;74.83;94874.38;5067247;28;20545;-71
2021/01/31 10:01:51;;;;;;;27.90;14.80;;;;;;;1.19;75.36;94873.19;5066983;28;20045;-71
2021/01/31 10:04:21;;;;;;;24.95;13.43;;;;;;;1.26;75.57;94870.94;5066816;28;20058;-71
2021/01/31 10:06:48;;;;;;;26.05;13.15;;;;;;;1.28;74.55;94874.09;5067348;28;20496;-71
2021/01/31 10:09:27;;;;;;;25.70;12.85;;;;;;;1.32;75.23;94877.00;5067299;28;20072;-71
2021/01/31 10:12:11;;;;;;;26.17;13.35;;;;;;;1.35;75.10;94876.38;5067369;28;20056;-71
2021/01/31 10:14:43;;;;;;;24.02;12.85;;;;;;;1.36;74.78;94879.88;5067535;28;20044;-70
2021/01/31 10:17:15;;;;;;;23.50;12.73;;;;;;;1.35;74.51;94875.59;5071019;28;20052;-70
2021/01/31 10:19:41;;;;;;;20.70;12.38;;;;;;;1.37;73.88;94873.44;5071253;28;20500;-70
2021/01/31 10:22:14;;;;;;;25.33;13.55;;;;;;;1.33;73.92;94875.09;5070581;28;20055;-70
2021/01/31 10:24:46;;;;;;;21.85;11.93;;;;;;;1.30;73.42;94874.63;5071166;28;20093;-70
2021/01/31 10:27:23;;;;;;;23.75;12.82;;;;;;;1.43;74.15;94874.94;5070947;28;20572;-71
2021/01/31 10:29:49;;;;;;;25.63;14.02;;;;;;;1.46;74.19;94871.63;5069329;28;20569;-71
2021/01/31 10:32:25;;;;;;;24.75;14.15;;;;;;;1.47;74.49;94876.72;5070131;28;20777;-71
2021/01/31 10:34:54;;;;;;;24.23;13.43;;;;;;;1.50;73.65;94878.00;5071063;28;20578;-70
2021/01/31 10:37:31;;;;;;;22.73;12.70;;;;;;;1.47;73.15;94886.66;5070805;28;20057;-70
2021/01/31 10:39:57;;;;;;;23.02;13.07;;;;;;;1.51;73.18;94880.41;5071008;28;20044;-70
2021/01/31 10:42:24;;;;;;;22.05;12.73;;;;;;;1.47;73.31;94878.63;5070411;28;20058;-71
2021/01/31 10:44:50;;;;;;;23.85;12.52;;;;;;;1.52;73.83;94876.63;5070906;28;20048;-71
2021/01/31 10:47:16;;;;;;;23.67;12.90;;;;;;;1.57;74.26;94873.06;5070407;28;20177;-71
2021/01/31 10:49:42;;;;;;;23.13;13.32;;;;;;;1.62;73.98;94869.47;5071142;28;20059;-70
2021/01/31 10:52:09;;;;;;;28.80;15.05;;;;;;;1.66;74.17;94871.25;5070153;28;20058;-70
2021/01/31 10:54:35;;;;;;;24.58;13.40;;;;;;;1.69;73.56;94875.25;5070592;28;20048;-70
2021/01/31 10:57:01;;;;;;;22.10;11.63;;;;;;;1.75;73.61;94877.53;5070581;28;20053;-70
2021/01/31 10:59:28;;;;;;;22.42;12.48;;;;;;;1.83;73.84;94876.84;5070105;28;20098;-69
2021/01/31 11:01:54;;;;;;;22.83;11.98;;;;;;;1.86;73.49;94880.03;5069237;28;20067;-70
2021/01/31 11:04:20;;;;;;;20.35;11.70;;;;;;;1.83;72.55;94876.06;5069962;28;20053;-70
2021/01/31 11:06:47;;;;;;;19.55;11.20;;;;;;;1.78;72.12;94876.94;5070905;28;20056;-70
2021/01/31 11:09:15;;;;;;;19.50;11.30;;;;;;;1.81;72.69;94888.97;5070106;28;20059;-70
2021/01/31 11:11:41;;;;;;;24.10;12.20;;;;;;;1.85;73.28;94879.22;5070700;28;20121;-71
2021/01/31 11:14:08;;;;;;;24.17;12.57;;;;;;;1.87;73.47;94886.97;5069739;28;20060;-71
2021/01/31 11:16:35;;;;;;;21.60;11.77;;;;;;;1.87;73.40;94881.59;5070507;28;20113;-71
2021/01/31 11:19:01;;;;;;;21.25;12.05;;;;;;;1.82;73.54;94883.28;5070308;28;20052;-71
2021/01/31 11:21:28;;;;;;;23.13;12.18;;;;;;;1.84;73.78;94883.00;5070213;28;20044;-70
2021/01/31 11:23:55;;;;;;;22.25;12.15;;;;;;;1.87;74.33;94886.97;5070150;28;20048;-71
2021/01/31 11:26:22;;;;;;;26.83;13.75;;;;;;;1.82;73.25;94879.81;5067613;28;20044;-71
2021/01/31 11:28:48;;;;;;;21.88;12.52;;;;;;;1.83;73.30;94876.84;5069995;28;20052;-70
2021/01/31 11:31:14;;;;;;;24.67;12.77;;;;;;;1.92;73.65;94865.41;5069851;28;20114;-71
2021/01/31 11:33:41;;;;;;;20.70;11.77;;;;;;;1.89;72.71;94857.97;5070332;28;20078;-71
2021/01/31 11:36:08;;;;;;;22.05;13.00;;;;;;;1.91;72.84;94869.19;5069312;28;20041;-71
2021/01/31 11:38:34;;;;;;;23.75;12.75;;;;;;;2.02;73.71;94859.81;5070088;28;20040;-71
2021/01/31 11:41:00;;;;;;;20.58;12.02;;;;;;;2.03;72.61;94858.72;5070009;28;20053;-71
2021/01/31 11:43:27;;;;;;;22.90;12.05;;;;;;;2.07;72.27;94848.97;5069731;28;20457;-71
2021/01/31 11:45:53;;;;;;;18.05;10.93;;;;;;;2.05;71.88;94851.19;5069847;28;20049;-70
2021/01/31 11:48:19;;;;;;;21.33;12.27;;;;;;;2.05;72.61;94851.19;5069363;28;20057;-71